createdAt,value
2023-05-13T00:00:39.696Z,101099.59
2023-05-13T00:03:08.985Z,101103.89
2023-05-13T00:05:38.630Z,101107.69
2023-05-13T00:08:08.029Z,101105.98
2023-05-13T00:10:37.025Z,101104.14
2023-05-13T00:13:06.095Z,101106.22
2023-05-13T00:15:35.645Z,101111.75
2023-05-13T00:18:05.142Z,101112.98
2023-05-13T00:20:35.861Z,101109.94
2023-05-13T00:23:05.424Z,101108.75
2023-05-13T00:25:35.965Z,101113.91
2023-05-13T00:28:05.834Z,101107.23
2023-05-13T00:30:34.728Z,101108.61
2023-05-13T00:33:04.019Z,101106.90
2023-05-13T00:35:33.857Z,101106.12
2023-05-13T00:38:02.767Z,101101.37
2023-05-13T00:40:32.028Z,101104.83
2023-05-13T00:43:01.361Z,101100.75
2023-05-13T00:45:31.297Z,101106.91
2023-05-13T00:48:00.465Z,101110.65
2023-05-13T00:50:31.022Z,101113.36
2023-05-13T00:53:00.152Z,101110.28
2023-05-13T00:55:29.367Z,101121.29
2023-05-13T00:57:58.254Z,101122.33
2023-05-13T01:00:29.449Z,101115.98
2023-05-13T01:03:09.231Z,101117.84
2023-05-13T01:05:53.128Z,101120.10
2023-05-13T01:08:33.730Z,101118.09
2023-05-13T01:11:07.191Z,101124.80
2023-05-13T01:13:40.300Z,101119.69
2023-05-13T01:16:24.367Z,101116.64
2023-05-13T01:19:01.280Z,101121.31
2023-05-13T01:21:33.508Z,101115.16
2023-05-13T01:24:03.497Z,101114.00
2023-05-13T01:26:34.574Z,101115.55
2023-05-13T01:29:05.141Z,101113.51
2023-05-13T01:31:35.161Z,101122.44
2023-05-13T01:34:06.960Z,101120.39
2023-05-13T01:36:37.793Z,101119.91
2023-05-13T01:39:07.703Z,101121.27
2023-05-13T01:41:37.572Z,101116.83
2023-05-13T01:44:07.437Z,101115.13
2023-05-13T01:46:39.474Z,101116.18
2023-05-13T01:49:10.341Z,101120.30
2023-05-13T01:51:41.576Z,101120.32
2023-05-13T01:54:11.822Z,101112.82
2023-05-13T01:56:44.599Z,101121.07
2023-05-13T01:59:14.821Z,101119.03
2023-05-13T02:01:45.693Z,101125.36
2023-05-13T02:04:14.507Z,101119.88
2023-05-13T02:06:44.665Z,101121.09
2023-05-13T02:09:14.901Z,101126.41
2023-05-13T02:11:45.171Z,101128.66
2023-05-13T02:14:14.672Z,101127.98
2023-05-13T02:16:43.774Z,101126.62
2023-05-13T02:19:13.147Z,101125.77
2023-05-13T02:21:44.066Z,101129.36
2023-05-13T02:24:13.693Z,101124.22
2023-05-13T02:26:42.650Z,101120.59
2023-05-13T02:29:11.759Z,101128.30
2023-05-13T02:31:43.114Z,101126.08
2023-05-13T02:34:13.136Z,101130.69
2023-05-13T02:36:43.668Z,101127.77
2023-05-13T02:39:13.065Z,101130.69
2023-05-13T02:41:43.312Z,101134.64
2023-05-13T02:44:12.820Z,101140.63
2023-05-13T02:46:41.467Z,101137.92
2023-05-13T02:49:11.332Z,101136.91
2023-05-13T02:51:40.728Z,101143.94
2023-05-13T02:54:09.568Z,101146.00
2023-05-13T02:56:38.733Z,101148.90
2023-05-13T02:59:07.573Z,101147.37
2023-05-13T03:01:38.248Z,101146.52
2023-05-13T03:04:11.204Z,101147.03
2023-05-13T03:06:41.113Z,101154.73
2023-05-13T03:09:10.242Z,101155.08
2023-05-13T03:11:38.998Z,101154.08
2023-05-13T03:14:09.452Z,101160.59
2023-05-13T03:16:40.682Z,101152.36
2023-05-13T03:19:10.519Z,101154.05
2023-05-13T03:21:41.190Z,101157.98
2023-05-13T03:24:11.808Z,101159.86
2023-05-13T03:26:41.277Z,101160.89
2023-05-13T03:29:12.444Z,101158.83
2023-05-13T03:31:43.590Z,101160.02
2023-05-13T03:34:12.948Z,101164.11
2023-05-13T03:36:42.484Z,101160.65
2023-05-13T03:39:12.403Z,101171.41
2023-05-13T03:41:41.566Z,101167.61
2023-05-13T03:44:10.512Z,101174.23
2023-05-13T03:46:40.434Z,101169.89
2023-05-13T03:49:09.685Z,101174.98
2023-05-13T03:51:39.207Z,101181.12
2023-05-13T03:54:08.887Z,101177.11
2023-05-13T03:56:38.837Z,101180.45
2023-05-13T03:59:08.050Z,101186.40
2023-05-13T04:01:38.103Z,101183.41
2023-05-13T04:04:06.887Z,101189.34
2023-05-13T04:06:36.646Z,101187.38
2023-05-13T04:09:05.889Z,101187.30
2023-05-13T04:11:34.764Z,101188.48
2023-05-13T04:14:05.126Z,101185.66
2023-05-13T04:16:34.717Z,101192.10
2023-05-13T04:19:04.878Z,101192.34
2023-05-13T04:21:34.724Z,101191.55
2023-05-13T04:24:04.168Z,101192.27
2023-05-13T04:26:33.368Z,101193.53
2023-05-13T04:29:02.610Z,101196.13
2023-05-13T04:31:31.963Z,101198.91
2023-05-13T04:34:00.898Z,101198.94
2023-05-13T04:36:31.516Z,101200.02
2023-05-13T04:39:01.511Z,101206.06
2023-05-13T04:41:30.691Z,101206.97
2023-05-13T04:43:59.773Z,101212.16
2023-05-13T04:46:29.215Z,101208.45
2023-05-13T04:48:58.794Z,101208.33
2023-05-13T04:51:29.221Z,101211.28
2023-05-13T04:53:59.612Z,101209.25
2023-05-13T04:56:30.478Z,101203.61
2023-05-13T04:58:59.589Z,101201.58
2023-05-13T05:01:29.207Z,101203.83
2023-05-13T05:03:59.236Z,101202.10
2023-05-13T05:06:28.380Z,101203.05
2023-05-13T05:08:57.908Z,101206.23
2023-05-13T05:11:28.664Z,101205.80
2023-05-13T05:13:58.508Z,101199.33
2023-05-13T05:16:30.583Z,101200.86
2023-05-13T05:19:01.016Z,101205.69
2023-05-13T05:21:31.856Z,101194.62
2023-05-13T05:24:01.936Z,101196.98
2023-05-13T05:26:31.657Z,101193.53
2023-05-13T05:29:01.428Z,101195.44
2023-05-13T05:31:31.210Z,101199.72
2023-05-13T05:34:02.886Z,101199.62
2023-05-13T05:36:31.867Z,101195.90
2023-05-13T05:39:01.979Z,101196.61
2023-05-13T05:41:33.529Z,101193.09
2023-05-13T05:44:02.544Z,101195.97
2023-05-13T05:46:32.844Z,101200.91
2023-05-13T05:49:03.929Z,101192.97
2023-05-13T05:51:35.135Z,101198.36
2023-05-13T05:54:05.757Z,101188.80
2023-05-13T05:56:36.249Z,101199.52
2023-05-13T05:59:05.342Z,101197.00
2023-05-13T06:01:36.557Z,101189.47
2023-05-13T06:04:06.654Z,101190.52
2023-05-13T06:06:36.809Z,101190.82
2023-05-13T06:09:08.006Z,101193.11
2023-05-13T06:11:37.523Z,101195.31
2023-05-13T06:14:06.416Z,101199.09
2023-05-13T06:16:35.743Z,101198.33
2023-05-13T06:19:04.777Z,101198.25
2023-05-13T06:21:35.610Z,101200.81
2023-05-13T06:24:05.297Z,101194.61
2023-05-13T06:26:36.391Z,101195.83
2023-05-13T06:29:06.198Z,101200.56
2023-05-13T06:31:36.564Z,101203.72
2023-05-13T06:34:06.741Z,101199.77
2023-05-13T06:36:37.296Z,101202.86
2023-05-13T06:39:09.649Z,101200.23
2023-05-13T06:41:43.544Z,101196.70
2023-05-13T06:44:15.888Z,101207.13
2023-05-13T06:46:46.660Z,101204.11
2023-05-13T06:49:16.049Z,101209.19
2023-05-13T06:51:45.304Z,101196.88
2023-05-13T06:54:14.530Z,101199.05
2023-05-13T06:56:44.138Z,101199.65
2023-05-13T06:59:13.647Z,101198.95
2023-05-13T07:01:42.978Z,101198.76
2023-05-13T07:04:12.889Z,101192.66
2023-05-13T07:06:42.968Z,101194.66
2023-05-13T07:09:12.929Z,101195.22
2023-05-13T07:11:42.620Z,101193.42
2023-05-13T07:14:11.730Z,101193.42
2023-05-13T07:16:40.885Z,101191.77
2023-05-13T07:19:09.997Z,101191.59
2023-05-13T07:21:40.096Z,101191.12
2023-05-13T07:24:09.537Z,101184.41
2023-05-13T07:26:38.784Z,101179.41
2023-05-13T07:29:09.254Z,101183.91
2023-05-13T07:31:38.196Z,101179.13
2023-05-13T07:34:08.015Z,101192.63
2023-05-13T07:36:37.838Z,101182.77
2023-05-13T07:39:08.752Z,101184.47
2023-05-13T07:41:38.664Z,101180.28
2023-05-13T07:44:09.481Z,101177.19
2023-05-13T07:46:38.948Z,101172.41
2023-05-13T07:49:08.582Z,101178.56
2023-05-13T07:51:38.724Z,101177.73
2023-05-13T07:54:09.062Z,101175.48
2023-05-13T07:56:40.809Z,101184.17
2023-05-13T07:59:10.515Z,101174.60
2023-05-13T08:01:39.207Z,101177.69
2023-05-13T08:04:09.196Z,101182.15
2023-05-13T08:06:40.115Z,101185.51
2023-05-13T08:09:14.222Z,101178.72
2023-05-13T08:11:46.809Z,101178.23
2023-05-13T08:14:18.773Z,101176.83
2023-05-13T08:16:50.770Z,101179.91
2023-05-13T08:19:20.597Z,101175.67
2023-05-13T08:21:50.942Z,101175.73
2023-05-13T08:24:20.279Z,101175.49
2023-05-13T08:26:49.059Z,101171.01
2023-05-13T08:29:18.104Z,101156.69
2023-05-13T08:31:47.261Z,101154.98
2023-05-13T08:34:16.645Z,101166.50
2023-05-13T08:36:46.066Z,101162.25
2023-05-13T08:39:15.904Z,101171.27
2023-05-13T08:41:45.062Z,101163.13
2023-05-13T08:44:14.700Z,101154.14
2023-05-13T08:46:48.179Z,101152.17
2023-05-13T08:49:17.203Z,101146.83
2023-05-13T08:51:46.569Z,101143.41
2023-05-13T08:54:16.886Z,101142.26
2023-05-13T08:56:46.324Z,101139.42
2023-05-13T08:59:15.593Z,101136.05
2023-05-13T09:01:45.589Z,101136.33
2023-05-13T09:04:14.482Z,101141.14
2023-05-13T09:06:43.721Z,101135.30
2023-05-13T09:09:13.075Z,101135.30
2023-05-13T09:11:44.574Z,101132.23
2023-05-13T09:14:13.560Z,101129.44
2023-05-13T09:16:42.384Z,101124.38
2023-05-13T09:19:11.975Z,101127.47
2023-05-13T09:21:41.955Z,101119.05
2023-05-13T09:24:19.754Z,101113.41
2023-05-13T09:26:49.757Z,101111.11
2023-05-13T09:29:22.828Z,101108.58
2023-05-13T09:31:55.399Z,101107.73
2023-05-13T09:34:34.861Z,101105.48
2023-05-13T09:37:06.249Z,101092.77
2023-05-13T09:39:41.279Z,101088.72
2023-05-13T09:42:19.801Z,101087.82
2023-05-13T09:44:49.591Z,101076.30
2023-05-13T09:47:18.411Z,101079.09
2023-05-13T09:49:55.077Z,101075.41
2023-05-13T09:52:24.524Z,101070.58
2023-05-13T09:54:53.427Z,101074.47
2023-05-13T09:57:24.990Z,101073.11
2023-05-13T09:59:59.131Z,101061.44
2023-05-13T10:02:28.683Z,101064.56
2023-05-13T10:04:58.088Z,101054.73
2023-05-13T10:07:27.379Z,101048.27
2023-05-13T10:10:01.723Z,101062.02
2023-05-13T10:12:31.900Z,101053.34
2023-05-13T10:15:01.352Z,101053.34
2023-05-13T10:17:30.585Z,101049.39
2023-05-13T10:19:59.834Z,101053.86
2023-05-13T10:22:31.249Z,101053.51
2023-05-13T10:25:02.734Z,101050.67
2023-05-13T10:27:33.180Z,101053.64
2023-05-13T10:30:03.942Z,101051.34
2023-05-13T10:32:33.358Z,101042.86
2023-05-13T10:35:12.302Z,101034.43
2023-05-13T10:38:15.958Z,101039.77
2023-05-13T10:40:53.679Z,101038.39
2023-05-13T10:43:25.386Z,101026.93
2023-05-13T10:46:07.215Z,101026.89
2023-05-13T10:48:43.217Z,101034.97
2023-05-13T10:51:16.416Z,101034.72
2023-05-13T10:53:51.002Z,101025.50
2023-05-13T10:56:25.583Z,101045.10
2023-05-13T10:59:02.368Z,101032.42
2023-05-13T11:01:38.828Z,101035.16
2023-05-13T11:04:19.025Z,101036.08
2023-05-13T11:06:50.626Z,101035.66
2023-05-13T11:09:24.906Z,101029.98
2023-05-13T11:11:56.414Z,101027.44
2023-05-13T11:14:27.920Z,101030.76
2023-05-13T11:17:08.229Z,101019.58
2023-05-13T11:19:47.883Z,101019.33
2023-05-13T11:22:21.844Z,101017.16
2023-05-13T11:25:10.412Z,101014.96
2023-05-13T11:27:41.853Z,101018.64
2023-05-13T11:30:28.659Z,101015.55
2023-05-13T11:32:58.702Z,101007.70
2023-05-13T11:35:31.229Z,101008.52
2023-05-13T11:38:01.754Z,101001.53
2023-05-13T11:40:38.856Z,101002.89
2023-05-13T11:43:07.969Z,100994.50
2023-05-13T11:45:40.006Z,101000.42
2023-05-13T11:48:20.933Z,100991.25
2023-05-13T11:50:52.641Z,100989.32
2023-05-13T11:53:22.304Z,100996.59
2023-05-13T11:55:51.512Z,100992.98
2023-05-13T11:58:21.441Z,100987.22
2023-05-13T12:00:49.990Z,100984.52
2023-05-13T12:03:19.693Z,100987.09
2023-05-13T12:05:49.044Z,100995.54
2023-05-13T12:08:18.537Z,100997.48
2023-05-13T12:10:47.402Z,100982.28
2023-05-13T12:13:18.950Z,100990.33
2023-05-13T12:15:47.987Z,100975.75
2023-05-13T12:18:17.935Z,100982.94
2023-05-13T12:20:47.235Z,100978.70
2023-05-13T12:23:16.340Z,100974.77
2023-05-13T12:25:47.435Z,100974.74
2023-05-13T12:28:19.373Z,100977.25
2023-05-13T12:30:57.418Z,100976.13
2023-05-13T12:33:29.532Z,100975.81
2023-05-13T12:36:27.733Z,100976.04
2023-05-13T12:39:04.888Z,100975.17
2023-05-13T12:41:36.824Z,100969.28
2023-05-13T12:44:11.258Z,100970.08
2023-05-13T12:46:51.136Z,100967.50
2023-05-13T12:49:19.887Z,100968.86
2023-05-13T12:51:48.638Z,100969.63
2023-05-13T12:54:18.691Z,100965.63
2023-05-13T12:56:48.198Z,100962.75
2023-05-13T12:59:18.807Z,100958.80
2023-05-13T13:01:49.190Z,100957.14
2023-05-13T13:04:18.749Z,100951.58
2023-05-13T13:06:47.839Z,100955.77
2023-05-13T13:09:16.512Z,100952.19
2023-05-13T13:11:46.330Z,100947.38
2023-05-13T13:14:15.269Z,100943.25
2023-05-13T13:16:44.739Z,100945.87
2023-05-13T13:19:13.708Z,100950.11
2023-05-13T13:21:42.517Z,100945.41
2023-05-13T13:24:11.214Z,100936.23
2023-05-13T13:26:40.545Z,100929.52
2023-05-13T13:29:09.443Z,100930.67
2023-05-13T13:31:38.706Z,100936.86
2023-05-13T13:34:09.743Z,100941.34
2023-05-13T13:36:38.574Z,100942.45
2023-05-13T13:39:07.503Z,100948.33
2023-05-13T13:41:37.012Z,100948.08
2023-05-13T13:44:06.123Z,100941.67
2023-05-13T13:46:35.004Z,100942.49
2023-05-13T13:49:16.273Z,100941.63
2023-05-13T13:51:37.449Z,100944.92
2023-05-13T13:54:07.025Z,100950.47
2023-05-13T13:56:38.130Z,100952.11
2023-05-13T13:59:07.521Z,100959.61
2023-05-13T14:01:39.949Z,100960.52
2023-05-13T14:04:20.580Z,100958.06
2023-05-13T14:06:50.966Z,100966.23
2023-05-13T14:09:19.663Z,100962.97
2023-05-13T14:11:48.883Z,100971.70
2023-05-13T14:14:18.801Z,100967.35
2023-05-13T14:16:47.894Z,100963.91
2023-05-13T14:19:18.340Z,100959.33
2023-05-13T14:21:47.754Z,100951.19
2023-05-13T14:24:16.747Z,100958.97
2023-05-13T14:26:46.317Z,100959.23
2023-05-13T14:29:15.645Z,100954.72
2023-05-13T14:31:45.131Z,100954.64
2023-05-13T14:34:14.337Z,100954.31
2023-05-13T14:36:44.375Z,100956.48
2023-05-13T14:39:13.030Z,100963.13
2023-05-13T14:41:43.423Z,100963.63
2023-05-13T14:44:13.175Z,100962.17
2023-05-13T14:46:41.886Z,100959.38
2023-05-13T14:49:10.364Z,100959.64
2023-05-13T14:51:38.869Z,100959.64
2023-05-13T14:54:07.692Z,100953.77
2023-05-13T14:56:37.602Z,100951.23
2023-05-13T14:59:06.604Z,100943.94
2023-05-13T15:01:35.772Z,100950.86
2023-05-13T15:04:04.959Z,100948.33
2023-05-13T15:06:34.116Z,100948.87
2023-05-13T15:09:03.449Z,100938.58
2023-05-13T15:11:32.951Z,100941.06
2023-05-13T15:14:02.979Z,100944.41
2023-05-13T15:16:32.009Z,100937.98
2023-05-13T15:19:01.006Z,100937.69
2023-05-13T15:21:29.882Z,100939.93
2023-05-13T15:23:58.551Z,100940.77
2023-05-13T15:26:28.063Z,100939.38
2023-05-13T15:28:57.948Z,100936.30
2023-05-13T15:31:30.135Z,100935.75
2023-05-13T15:33:59.324Z,100940.19
2023-05-13T15:36:28.359Z,100940.15
2023-05-13T15:38:57.123Z,100944.58
2023-05-13T15:41:26.953Z,100935.92
2023-05-13T15:43:57.886Z,100937.25
2023-05-13T15:46:26.938Z,100940.29
2023-05-13T15:48:57.107Z,100937.50
2023-05-13T15:51:26.753Z,100931.93
2023-05-13T15:53:55.439Z,100939.48
2023-05-13T15:56:25.529Z,100934.83
2023-05-13T15:58:55.611Z,100938.79
2023-05-13T16:01:25.170Z,100938.02
2023-05-13T16:03:54.668Z,100936.97
2023-05-13T16:06:24.009Z,100937.84
2023-05-13T16:11:24.473Z,100942.95
2023-05-13T16:13:53.314Z,100936.52
2023-05-13T16:16:22.102Z,100928.42
2023-05-13T16:18:50.874Z,100934.28
2023-05-13T16:21:19.999Z,100934.55
2023-05-13T16:23:50.749Z,100935.90
2023-05-13T16:26:21.361Z,100941.14
2023-05-13T16:28:50.517Z,100942.17
2023-05-13T16:31:19.634Z,100941.94
2023-05-13T16:33:48.738Z,100942.63
2023-05-13T16:36:18.098Z,100943.55
2023-05-13T16:38:47.208Z,100939.50
2023-05-13T16:41:17.050Z,100942.97
2023-05-13T16:43:45.802Z,100947.05
2023-05-13T16:46:16.660Z,100946.13
2023-05-13T16:48:45.681Z,100944.09
2023-05-13T16:51:14.529Z,100953.95
2023-05-13T16:53:43.458Z,100943.42
2023-05-13T16:56:12.402Z,100946.33
2023-05-13T16:58:42.293Z,100948.76
2023-05-13T17:01:11.386Z,100952.59
2023-05-13T17:03:40.402Z,100951.05
2023-05-13T17:06:09.644Z,100956.22
2023-05-13T17:08:38.725Z,100956.08
2023-05-13T17:11:10.052Z,100960.69
2023-05-13T17:13:38.758Z,100957.45
2023-05-13T17:16:08.647Z,100958.14
2023-05-13T17:18:37.705Z,100954.65
2023-05-13T17:21:07.416Z,100958.70
2023-05-13T17:23:36.698Z,100959.39
2023-05-13T17:26:05.367Z,100963.94
2023-05-13T17:28:34.313Z,100964.66
2023-05-13T17:31:04.844Z,100966.45
2023-05-13T17:33:34.486Z,100966.19
2023-05-13T17:36:04.413Z,100969.02
2023-05-13T17:38:33.641Z,100970.77
2023-05-13T17:41:02.771Z,100967.75
2023-05-13T17:43:32.456Z,100971.97
2023-05-13T17:46:02.078Z,100967.48
2023-05-13T17:48:32.850Z,100971.29
2023-05-13T17:51:01.589Z,100972.72
2023-05-13T17:53:31.694Z,100973.80
2023-05-13T17:56:01.617Z,100974.21
2023-05-13T17:58:31.014Z,100979.86
2023-05-13T18:01:00.385Z,100978.80
2023-05-13T18:03:30.220Z,100980.59
2023-05-13T18:05:59.916Z,100991.31
2023-05-13T18:08:28.767Z,100990.55
2023-05-13T18:10:57.390Z,100987.69
2023-05-13T18:13:27.359Z,100988.55
2023-05-13T18:15:55.955Z,100993.17
2023-05-13T18:18:25.234Z,100990.71
2023-05-13T18:20:54.512Z,100996.26
2023-05-13T18:23:23.816Z,100999.26
2023-05-13T18:25:56.343Z,101000.83
2023-05-13T18:28:25.843Z,101004.10
2023-05-13T18:30:56.004Z,101005.33
2023-05-13T18:33:25.705Z,101002.84
2023-05-13T18:35:54.550Z,101003.76
2023-05-13T18:38:23.763Z,101007.44
2023-05-13T18:40:52.577Z,101012.73
2023-05-13T18:43:21.166Z,101009.25
2023-05-13T18:45:50.076Z,101017.48
2023-05-13T18:48:20.388Z,101016.99
2023-05-13T18:50:52.984Z,101011.91
2023-05-13T18:53:21.825Z,101003.83
2023-05-13T18:55:51.517Z,101014.59
2023-05-13T18:58:20.849Z,101016.95
2023-05-13T19:00:51.479Z,101021.78
2023-05-13T19:03:21.627Z,101018.81
2023-05-13T19:05:52.820Z,101022.25
2023-05-13T19:08:22.382Z,101022.56
2023-05-13T19:10:52.944Z,101023.45
2023-05-13T19:13:22.360Z,101020.33
2023-05-13T19:15:51.314Z,101015.88
2023-05-13T19:18:20.359Z,101016.10
2023-05-13T19:20:49.022Z,101015.25
2023-05-13T19:23:17.999Z,101022.08
2023-05-13T19:25:48.030Z,101018.59
2023-05-13T19:28:18.362Z,101012.75
2023-05-13T19:30:46.885Z,101014.57
2023-05-13T19:33:17.523Z,101007.70
2023-05-13T19:35:46.052Z,101010.14
2023-05-13T19:38:16.081Z,101003.23
2023-05-13T19:40:45.101Z,101005.69
2023-05-13T19:43:14.483Z,101008.45
2023-05-13T19:45:44.911Z,101002.60
2023-05-13T19:48:13.708Z,101003.05
2023-05-13T19:50:42.637Z,101000.94
2023-05-13T19:53:12.429Z,100997.11
2023-05-13T19:55:42.405Z,100990.41
2023-05-13T19:58:11.874Z,100995.95
2023-05-13T20:00:40.862Z,100994.25
2023-05-13T20:03:11.334Z,100992.55
2023-05-13T20:05:44.454Z,100988.41
2023-05-13T20:08:13.778Z,100990.52
2023-05-13T20:10:42.906Z,100988.41
2023-05-13T20:13:11.683Z,100992.87
2023-05-13T20:15:42.068Z,100995.01
2023-05-13T20:18:10.785Z,100986.80
2023-05-13T20:20:41.219Z,100988.50
2023-05-13T20:23:10.137Z,100986.80
2023-05-13T20:25:38.806Z,100983.41
2023-05-13T20:28:08.094Z,100987.56
2023-05-13T20:30:37.155Z,100981.72
2023-05-13T20:33:06.214Z,100981.84
2023-05-13T20:35:36.622Z,100977.38
2023-05-13T20:38:05.578Z,100978.77
2023-05-13T20:40:35.083Z,100988.97
2023-05-13T20:43:05.062Z,100985.36
2023-05-13T20:45:36.817Z,100987.06
2023-05-13T20:48:07.763Z,100984.30
2023-05-13T20:50:37.643Z,100985.45
2023-05-13T20:53:07.162Z,100986.53
2023-05-13T20:55:35.708Z,100986.43
2023-05-13T20:58:04.612Z,100985.80
2023-05-13T21:00:33.637Z,100983.57
2023-05-13T21:03:02.345Z,100982.19
2023-05-13T21:05:31.593Z,100981.88
2023-05-13T21:08:00.814Z,100979.86
2023-05-13T21:10:29.590Z,100981.47
2023-05-13T21:12:58.093Z,100980.71
2023-05-13T21:15:28.106Z,100984.33
2023-05-13T21:17:56.759Z,100979.02
2023-05-13T21:20:25.668Z,100984.14
2023-05-13T21:22:54.876Z,100981.59
2023-05-13T21:25:23.565Z,100981.38
2023-05-13T21:27:52.331Z,100982.53
2023-05-13T21:30:21.441Z,100979.98
2023-05-13T21:32:52.749Z,100978.61
2023-05-13T21:35:21.398Z,100981.59
2023-05-13T21:37:52.261Z,100975.66
2023-05-13T21:40:22.950Z,100975.02
2023-05-13T21:42:52.424Z,100982.78
2023-05-13T21:45:22.287Z,100970.66
2023-05-13T21:47:51.159Z,100971.50
2023-05-13T21:50:20.738Z,100957.59
2023-05-13T21:52:49.640Z,100963.34
2023-05-13T21:55:19.358Z,100954.01
2023-05-13T21:57:48.896Z,100954.12
2023-05-13T22:00:19.116Z,100951.71
2023-05-13T22:02:49.097Z,100957.77
2023-05-13T22:05:18.029Z,100958.08
2023-05-13T22:07:46.669Z,100954.57
2023-05-13T22:10:15.666Z,100956.05
2023-05-13T22:12:44.823Z,100948.73
2023-05-13T22:15:13.670Z,100951.83
2023-05-13T22:17:42.627Z,100944.52
2023-05-13T22:20:13.113Z,100946.02
2023-05-13T22:22:42.417Z,100948.05
2023-05-13T22:25:11.340Z,100946.22
2023-05-13T22:27:40.515Z,100943.45
2023-05-13T22:30:10.221Z,100946.13
2023-05-13T22:32:39.785Z,100948.23
2023-05-13T22:35:09.540Z,100944.63
2023-05-13T22:37:38.053Z,100947.25
2023-05-13T22:40:09.495Z,100950.77
2023-05-13T22:42:38.672Z,100950.45
2023-05-13T22:45:09.272Z,100946.09
2023-05-13T22:47:39.079Z,100944.17
2023-05-13T22:50:09.487Z,100947.69
2023-05-13T22:52:38.308Z,100946.42
2023-05-13T22:55:08.584Z,100943.56
2023-05-13T22:57:37.728Z,100942.72
2023-05-13T23:00:08.108Z,100942.83
2023-05-13T23:02:38.295Z,100946.88
2023-05-13T23:05:08.744Z,100947.41
2023-05-13T23:07:37.965Z,100945.08
2023-05-13T23:10:08.090Z,100945.83
2023-05-13T23:12:38.940Z,100948.27
2023-05-13T23:15:10.706Z,100947.95
2023-05-13T23:17:40.675Z,100948.59
2023-05-13T23:20:11.164Z,100950.28
2023-05-13T23:22:40.700Z,100947.73
2023-05-13T23:25:10.666Z,100946.05
2023-05-13T23:27:39.807Z,100949.87
2023-05-13T23:30:10.867Z,100946.79
2023-05-13T23:32:40.623Z,100945.19
2023-05-13T23:35:10.296Z,100949.97
2023-05-13T23:37:39.618Z,100951.03
2023-05-13T23:40:09.841Z,100951.25
2023-05-13T23:42:38.736Z,100957.62
2023-05-13T23:45:10.053Z,100949.65
2023-05-13T23:47:39.121Z,100956.13
2023-05-13T23:50:08.997Z,100954.96
2023-05-13T23:52:37.597Z,100958.25
2023-05-13T23:55:07.996Z,100957.72
2023-05-13T23:57:37.389Z,100962.08
